createdAt,value
2022-09-30T00:04:29.751Z,11.8
2022-09-30T00:10:07.178Z,11.8
2022-09-30T00:15:43.751Z,11.8
2022-09-30T00:20:50.835Z,11.7
2022-09-30T00:25:56.828Z,11.6
2022-09-30T00:31:33.903Z,11.6
2022-09-30T00:37:11.816Z,11.6
2022-09-30T00:42:48.128Z,11.6
2022-09-30T00:48:30.077Z,11.6
2022-09-30T00:53:52.607Z,11.6
2022-09-30T00:59:28.531Z,11.6
2022-09-30T01:05:05.227Z,11.7
2022-09-30T01:10:43.508Z,11.7
2022-09-30T01:16:23.874Z,11.8
2022-09-30T01:21:46.111Z,11.8
2022-09-30T01:27:29.257Z,11.9
2022-09-30T01:32:50.196Z,11.9
2022-09-30T01:38:11.768Z,11.9
2022-09-30T01:43:34.313Z,11.9
2022-09-30T01:49:10.563Z,11.9
2022-09-30T01:54:46.991Z,11.8
2022-09-30T02:00:25.006Z,11.8
2022-09-30T02:06:01.219Z,11.7
2022-09-30T02:11:38.862Z,11.7
2022-09-30T02:17:16.416Z,11.8
2022-09-30T02:22:53.154Z,11.8
2022-09-30T02:28:30.212Z,11.8
2022-09-30T02:34:08.329Z,11.8
2022-09-30T02:39:14.366Z,11.8
2022-09-30T02:44:35.854Z,11.8
2022-09-30T02:49:43.344Z,11.9
2022-09-30T02:55:19.108Z,11.9
2022-09-30T03:01:03.151Z,11.9
2022-09-30T03:06:40.832Z,11.9
2022-09-30T03:12:02.721Z,12
2022-09-30T03:17:42.911Z,12.1
2022-09-30T03:22:50.609Z,12.1
2022-09-30T03:28:11.253Z,12.1
2022-09-30T03:33:50.336Z,12.1
2022-09-30T03:39:27.734Z,12.1
2022-09-30T03:45:03.880Z,12.1
2022-09-30T03:50:40.498Z,12.1
2022-09-30T03:56:17.778Z,12.1
2022-09-30T04:01:54.623Z,12.1
2022-09-30T04:07:31.732Z,12.1
2022-09-30T04:13:10.115Z,12.1
2022-09-30T04:18:50.350Z,12.1
2022-09-30T04:24:12.174Z,12.1
2022-09-30T04:29:34.574Z,12.1
2022-09-30T04:35:15.850Z,12.1
2022-09-30T04:40:53.747Z,12.1
2022-09-30T04:46:16.620Z,12.1
2022-09-30T04:51:58.485Z,12.2
2022-09-30T04:57:20.726Z,12.3
2022-09-30T05:02:44.168Z,12.3
2022-09-30T05:08:21.686Z,12.4
2022-09-30T05:14:03.623Z,12.6
2022-09-30T05:19:41.153Z,12.7
2022-09-30T05:25:23.504Z,12.8
2022-09-30T05:31:01.337Z,13.1
2022-09-30T05:36:39.483Z,13.4
2022-09-30T05:42:17.047Z,13.8
2022-09-30T05:47:54.950Z,14.4
2022-09-30T05:53:38.129Z,14.9
2022-09-30T05:59:22.381Z,15.6
2022-09-30T06:05:08.074Z,16.5
2022-09-30T06:10:52.848Z,17.4
2022-09-30T06:16:30.587Z,18.3
2022-09-30T06:22:08.571Z,19.1
2022-09-30T06:27:48.087Z,20
2022-09-30T06:33:27.292Z,20.6
2022-09-30T06:39:04.977Z,21.3
2022-09-30T06:45:09.456Z,21.7
2022-09-30T06:52:14.451Z,22.1
2022-09-30T06:57:52.478Z,22.5
2022-09-30T07:03:30.724Z,23.1
2022-09-30T07:09:10.815Z,23.9
2022-09-30T07:14:48.331Z,24.6
2022-09-30T07:20:26.826Z,26.3
2022-09-30T07:26:04.506Z,28.6
2022-09-30T07:32:39.776Z,31.4
2022-09-30T07:38:19.373Z,33.9
2022-09-30T07:43:57.589Z,38.6
2022-09-30T07:49:38.885Z,43.9
2022-09-30T07:55:23.561Z,54.7
2022-09-30T08:01:53.223Z,49.1
2022-09-30T08:07:35.653Z,45.5
2022-09-30T08:13:16.519Z,49.9
2022-09-30T08:18:53.885Z,51
2022-09-30T08:24:38.323Z,52.3
2022-09-30T08:30:46.565Z,53.5
2022-09-30T08:36:24.736Z,54.5
2022-09-30T08:42:09.179Z,55.8
2022-09-30T08:48:10.260Z,57.1
2022-09-30T08:54:01.550Z,58.3
2022-09-30T08:59:49.057Z,59.2
2022-09-30T09:05:27.533Z,60.1
2022-09-30T09:11:09.872Z,61.1
2022-09-30T09:16:47.985Z,62.1
2022-09-30T09:22:40.969Z,62.8
2022-09-30T09:28:19.130Z,63.6
2022-09-30T09:33:42.518Z,64.2
2022-09-30T09:39:08.228Z,64.4
2022-09-30T09:44:54.763Z,64.8
2022-09-30T09:50:17.871Z,65.5
2022-09-30T09:55:56.340Z,66.1
2022-09-30T10:01:43.181Z,66.5
2022-09-30T10:07:20.371Z,66.9
2022-09-30T10:12:43.006Z,66.1
2022-09-30T10:18:21.057Z,65.8
2022-09-30T10:23:43.523Z,65.3
2022-09-30T10:29:25.059Z,65.3
2022-09-30T10:35:08.415Z,65.1
2022-09-30T10:40:51.253Z,65.6
2022-09-30T10:46:40.998Z,66.1
2022-09-30T10:52:09.562Z,65.8
2022-09-30T10:57:38.269Z,65.8
2022-09-30T11:03:08.412Z,65.9
2022-09-30T11:08:30.888Z,67
2022-09-30T11:13:53.113Z,66.1
2022-09-30T11:19:31.429Z,67.6
2022-09-30T11:25:11.229Z,68.2
2022-09-30T11:30:34.089Z,69.3
2022-09-30T11:35:59.041Z,66.7
2022-09-30T11:41:36.515Z,69.1
2022-09-30T11:47:13.917Z,63.9
2022-09-30T11:52:36.528Z,58.6
2022-09-30T11:58:36.508Z,59.3
2022-09-30T12:04:01.744Z,61.9
2022-09-30T12:09:40.239Z,62.1
2022-09-30T12:14:52.659Z,60.4
2022-09-30T12:20:37.465Z,58.1
2022-09-30T12:25:59.614Z,57.2
2022-09-30T12:31:39.762Z,61.4
2022-09-30T12:37:17.615Z,67
2022-09-30T12:42:55.389Z,69.1
2022-09-30T12:48:34.067Z,56.3
2022-09-30T12:54:11.807Z,62.1
2022-09-30T12:59:49.416Z,67.2
2022-09-30T13:05:27.620Z,66
2022-09-30T13:11:07.922Z,57.8
2022-09-30T13:16:31.012Z,61.9
2022-09-30T13:22:09.505Z,65
2022-09-30T13:27:36.659Z,66.4
2022-09-30T13:33:15.337Z,61.4
2022-09-30T13:38:53.098Z,57.5
2022-09-30T13:44:57.472Z,59
2022-09-30T13:50:20.825Z,60.1
2022-09-30T13:55:26.906Z,60.1
2022-09-30T14:01:05.125Z,59.4
2022-09-30T14:06:43.346Z,57.9
2022-09-30T14:12:26.845Z,56.7
2022-09-30T14:18:05.830Z,54.9
2022-09-30T14:23:44.789Z,53.1
2022-09-30T14:29:26.905Z,51.8
2022-09-30T14:35:06.663Z,50
2022-09-30T14:42:13.711Z,47.7
2022-09-30T14:47:58.152Z,45.9
2022-09-30T14:53:41.521Z,44.2
2022-09-30T14:59:19.548Z,42.8
2022-09-30T15:05:01.089Z,41.4
2022-09-30T15:10:38.623Z,39.9
2022-09-30T15:16:16.611Z,38.7
2022-09-30T15:21:54.039Z,37.3
2022-09-30T15:27:32.567Z,36
2022-09-30T15:33:10.983Z,34.7
2022-09-30T15:38:53.392Z,33.4
2022-09-30T15:44:35.694Z,32
2022-09-30T15:50:14.776Z,30.6
2022-09-30T15:55:56.539Z,29.3
2022-09-30T16:01:35.260Z,28.2
2022-09-30T16:07:13.111Z,27.2
2022-09-30T16:18:34.841Z,25.5
2022-09-30T16:24:12.353Z,24.8
2022-09-30T16:29:51.960Z,24.2
2022-09-30T16:35:29.588Z,23.6
2022-09-30T16:41:07.405Z,22.9
2022-09-30T16:46:50.474Z,22.3
2022-09-30T16:52:16.656Z,21.7
2022-09-30T16:57:54.833Z,21.1
2022-09-30T17:03:16.895Z,20.4
2022-09-30T17:08:54.766Z,19.8
2022-09-30T17:14:32.571Z,19.3
2022-09-30T17:19:54.337Z,19
2022-09-30T17:31:17.018Z,18.6
2022-09-30T17:36:54.376Z,18.4
2022-09-30T17:42:33.946Z,18.1
2022-09-30T17:47:45.335Z,17.8
2022-09-30T17:53:22.653Z,17.4
2022-09-30T17:59:05.070Z,17.1
2022-09-30T18:04:29.151Z,16.8
2022-09-30T18:10:07.164Z,16.6
2022-09-30T18:15:45.426Z,16.3
2022-09-30T18:21:24.296Z,16
2022-09-30T18:26:50.046Z,15.8
2022-09-30T18:32:14.028Z,15.6
2022-09-30T18:37:36.549Z,15.4
2022-09-30T18:43:00.261Z,15.2
2022-09-30T18:48:23.113Z,15
2022-09-30T18:54:01.064Z,14.8
2022-09-30T18:59:40.642Z,14.7
2022-09-30T19:05:20.127Z,14.6
2022-09-30T19:10:57.829Z,14.4
2022-09-30T19:16:38.614Z,14.2
2022-09-30T19:22:16.756Z,14.1
2022-09-30T19:27:54.129Z,14
2022-09-30T19:33:33.085Z,13.9
2022-09-30T19:41:11.791Z,13.8
2022-09-30T19:46:54.999Z,13.6
2022-09-30T19:52:56.575Z,13.5
2022-09-30T19:59:27.332Z,13.4
2022-09-30T20:04:56.103Z,13.1
2022-09-30T20:10:18.142Z,12.9
2022-09-30T20:16:02.212Z,12.8
2022-09-30T20:21:25.320Z,12.8
2022-09-30T20:27:02.788Z,12.7
2022-09-30T20:32:26.795Z,12.5
2022-09-30T20:38:05.624Z,12.4
2022-09-30T20:43:43.346Z,12.4
2022-09-30T20:49:24.106Z,12.3
2022-09-30T20:55:02.541Z,12.3
2022-09-30T21:01:04.965Z,12.3
2022-09-30T21:06:42.975Z,12.1
2022-09-30T21:12:21.731Z,12.1
2022-09-30T21:17:44.350Z,12
2022-09-30T21:23:21.917Z,11.9
2022-09-30T21:28:48.177Z,11.8
2022-09-30T21:34:11.992Z,11.7
2022-09-30T21:39:34.569Z,11.6
2022-09-30T21:45:12.985Z,11.4
2022-09-30T21:50:34.643Z,11.3
2022-09-30T21:56:16.704Z,11.3
2022-09-30T22:01:55.059Z,11.1
2022-09-30T22:07:16.902Z,11.1
2022-09-30T22:12:55.049Z,11.1
2022-09-30T22:18:33.221Z,11.1
2022-09-30T22:24:10.456Z,11.1
2022-09-30T22:29:48.088Z,11
2022-09-30T22:35:26.174Z,10.9
2022-09-30T22:40:50.793Z,10.9
2022-09-30T22:46:12.878Z,10.8
2022-09-30T22:51:50.802Z,10.7
2022-09-30T22:57:11.959Z,10.6
2022-09-30T23:02:33.239Z,10.6
2022-09-30T23:07:55.548Z,10.4
2022-09-30T23:13:32.882Z,10.3
2022-09-30T23:19:10.465Z,10.2
2022-09-30T23:24:47.802Z,10.1
2022-09-30T23:30:24.697Z,10
2022-09-30T23:36:02.418Z,9.9
2022-09-30T23:41:09.694Z,9.9
2022-09-30T23:46:47.204Z,9.9
2022-09-30T23:52:28.841Z,9.8
2022-09-30T23:58:05.789Z,9.8
